sensor_id;sensor_type;location;lat;lon;timestamp;P1;durP1;ratioP1;P2;durP2;ratioP2
67074;SDS011;53990;50.334;18.640;2022-07-23T00:00:20;19.70;;;15.00;;
67074;SDS011;53990;50.334;18.640;2022-07-23T00:03:02;17.40;;;14.10;;
67074;SDS011;53990;50.334;18.640;2022-07-23T00:05:29;17.60;;;14.00;;
67074;SDS011;53990;50.334;18.640;2022-07-23T00:07:56;21.20;;;15.30;;
67074;SDS011;53990;50.334;18.640;2022-07-23T00:10:24;16.80;;;15.00;;
67074;SDS011;53990;50.334;18.640;2022-07-23T00:12:51;22.60;;;15.80;;
67074;SDS011;53990;50.334;18.640;2022-07-23T00:15:18;21.50;;;16.30;;
67074;SDS011;53990;50.334;18.640;2022-07-23T00:17:46;18.60;;;15.20;;
67074;SDS011;53990;50.334;18.640;2022-07-23T00:20:13;21.30;;;17.50;;
67074;SDS011;53990;50.334;18.640;2022-07-23T00:22:51;23.30;;;16.50;;
67074;SDS011;53990;50.334;18.640;2022-07-23T00:25:23;20.60;;;18.20;;
67074;SDS011;53990;50.334;18.640;2022-07-23T00:27:50;19.00;;;16.00;;
67074;SDS011;53990;50.334;18.640;2022-07-23T00:30:18;20.50;;;15.50;;
67074;SDS011;53990;50.334;18.640;2022-07-23T00:32:49;19.20;;;16.20;;
67074;SDS011;53990;50.334;18.640;2022-07-23T00:35:20;15.70;;;13.70;;
67074;SDS011;53990;50.334;18.640;2022-07-23T00:37:48;20.60;;;13.40;;
67074;SDS011;53990;50.334;18.640;2022-07-23T00:40:15;18.20;;;13.90;;
67074;SDS011;53990;50.334;18.640;2022-07-23T00:42:43;15.90;;;12.50;;
67074;SDS011;53990;50.334;18.640;2022-07-23T00:45:10;20.10;;;12.60;;
67074;SDS011;53990;50.334;18.640;2022-07-23T00:47:37;16.50;;;13.30;;
67074;SDS011;53990;50.334;18.640;2022-07-23T00:50:06;14.60;;;11.90;;
67074;SDS011;53990;50.334;18.640;2022-07-23T00:52:35;15.50;;;13.10;;
67074;SDS011;53990;50.334;18.640;2022-07-23T00:55:03;16.00;;;12.50;;
67074;SDS011;53990;50.334;18.640;2022-07-23T00:57:31;17.40;;;13.20;;
67074;SDS011;53990;50.334;18.640;2022-07-23T00:59:59;18.80;;;14.00;;
67074;SDS011;53990;50.334;18.640;2022-07-23T01:02:27;15.50;;;13.30;;
67074;SDS011;53990;50.334;18.640;2022-07-23T01:04:54;16.90;;;13.60;;
67074;SDS011;53990;50.334;18.640;2022-07-23T01:07:21;16.20;;;13.50;;
67074;SDS011;53990;50.334;18.640;2022-07-23T01:09:50;18.70;;;14.10;;
67074;SDS011;53990;50.334;18.640;2022-07-23T01:12:18;17.90;;;12.90;;
67074;SDS011;53990;50.334;18.640;2022-07-23T01:14:45;16.50;;;12.30;;
67074;SDS011;53990;50.334;18.640;2022-07-23T01:17:20;16.90;;;13.70;;
67074;SDS011;53990;50.334;18.640;2022-07-23T01:19:47;18.20;;;13.60;;
67074;SDS011;53990;50.334;18.640;2022-07-23T01:22:14;17.40;;;13.50;;
67074;SDS011;53990;50.334;18.640;2022-07-23T01:24:44;20.80;;;13.80;;
67074;SDS011;53990;50.334;18.640;2022-07-23T01:27:11;16.60;;;14.40;;
67074;SDS011;53990;50.334;18.640;2022-07-23T01:29:39;16.90;;;13.90;;
67074;SDS011;53990;50.334;18.640;2022-07-23T01:32:07;17.10;;;13.60;;
67074;SDS011;53990;50.334;18.640;2022-07-23T01:34:34;19.90;;;13.00;;
67074;SDS011;53990;50.334;18.640;2022-07-23T01:37:01;16.60;;;13.90;;
67074;SDS011;53990;50.334;18.640;2022-07-23T01:39:28;17.70;;;13.90;;
67074;SDS011;53990;50.334;18.640;2022-07-23T01:41:55;18.60;;;14.30;;
67074;SDS011;53990;50.334;18.640;2022-07-23T01:44:22;17.00;;;13.40;;
67074;SDS011;53990;50.334;18.640;2022-07-23T01:46:49;15.50;;;13.70;;
67074;SDS011;53990;50.334;18.640;2022-07-23T01:49:17;16.30;;;13.70;;
67074;SDS011;53990;50.334;18.640;2022-07-23T01:51:44;17.10;;;13.80;;
67074;SDS011;53990;50.334;18.640;2022-07-23T01:54:27;18.90;;;13.80;;
67074;SDS011;53990;50.334;18.640;2022-07-23T01:56:55;18.10;;;13.50;;
67074;SDS011;53990;50.334;18.640;2022-07-23T01:59:23;17.30;;;13.50;;
67074;SDS011;53990;50.334;18.640;2022-07-23T02:01:51;15.80;;;13.20;;
67074;SDS011;53990;50.334;18.640;2022-07-23T02:04:20;15.90;;;12.60;;
67074;SDS011;53990;50.334;18.640;2022-07-23T02:06:49;16.70;;;13.00;;
67074;SDS011;53990;50.334;18.640;2022-07-23T02:09:16;18.50;;;13.30;;
67074;SDS011;53990;50.334;18.640;2022-07-23T02:11:43;14.10;;;12.50;;
67074;SDS011;53990;50.334;18.640;2022-07-23T02:14:11;17.50;;;13.70;;
67074;SDS011;53990;50.334;18.640;2022-07-23T02:16:38;17.00;;;13.70;;
67074;SDS011;53990;50.334;18.640;2022-07-23T02:19:05;19.40;;;13.60;;
67074;SDS011;53990;50.334;18.640;2022-07-23T02:21:32;15.60;;;13.10;;
67074;SDS011;53990;50.334;18.640;2022-07-23T02:24:00;17.30;;;14.50;;
67074;SDS011;53990;50.334;18.640;2022-07-23T02:26:27;16.00;;;12.90;;
67074;SDS011;53990;50.334;18.640;2022-07-23T02:28:54;17.00;;;13.90;;
67074;SDS011;53990;50.334;18.640;2022-07-23T02:31:21;17.50;;;13.70;;
67074;SDS011;53990;50.334;18.640;2022-07-23T02:33:48;17.50;;;14.30;;
67074;SDS011;53990;50.334;18.640;2022-07-23T02:36:15;20.40;;;15.10;;
67074;SDS011;53990;50.334;18.640;2022-07-23T02:38:43;23.60;;;16.80;;
67074;SDS011;53990;50.334;18.640;2022-07-23T02:41:10;18.50;;;15.30;;
67074;SDS011;53990;50.334;18.640;2022-07-23T02:43:37;18.00;;;14.70;;
67074;SDS011;53990;50.334;18.640;2022-07-23T02:46:04;21.40;;;16.10;;
67074;SDS011;53990;50.334;18.640;2022-07-23T02:48:31;20.70;;;15.70;;
67074;SDS011;53990;50.334;18.640;2022-07-23T02:50:58;22.80;;;15.50;;
67074;SDS011;53990;50.334;18.640;2022-07-23T02:53:26;18.50;;;15.30;;
67074;SDS011;53990;50.334;18.640;2022-07-23T02:55:53;23.00;;;15.60;;
67074;SDS011;53990;50.334;18.640;2022-07-23T02:58:20;21.90;;;16.00;;
67074;SDS011;53990;50.334;18.640;2022-07-23T03:00:48;21.20;;;16.20;;
67074;SDS011;53990;50.334;18.640;2022-07-23T03:03:15;20.20;;;15.40;;
67074;SDS011;53990;50.334;18.640;2022-07-23T03:05:42;20.50;;;15.70;;
67074;SDS011;53990;50.334;18.640;2022-07-23T03:08:09;20.40;;;16.10;;
67074;SDS011;53990;50.334;18.640;2022-07-23T03:10:36;23.80;;;17.30;;
67074;SDS011;53990;50.334;18.640;2022-07-23T03:13:04;26.40;;;16.80;;
67074;SDS011;53990;50.334;18.640;2022-07-23T03:15:31;22.60;;;17.10;;
67074;SDS011;53990;50.334;18.640;2022-07-23T03:17:58;24.30;;;16.70;;
67074;SDS011;53990;50.334;18.640;2022-07-23T03:20:25;24.80;;;17.40;;
67074;SDS011;53990;50.334;18.640;2022-07-23T03:22:52;24.30;;;16.50;;
67074;SDS011;53990;50.334;18.640;2022-07-23T03:25:19;22.60;;;16.70;;
67074;SDS011;53990;50.334;18.640;2022-07-23T03:27:47;20.50;;;16.10;;
67074;SDS011;53990;50.334;18.640;2022-07-23T03:30:14;22.80;;;16.80;;
67074;SDS011;53990;50.334;18.640;2022-07-23T03:32:41;23.60;;;16.50;;
67074;SDS011;53990;50.334;18.640;2022-07-23T03:35:08;23.60;;;16.30;;
67074;SDS011;53990;50.334;18.640;2022-07-23T03:37:35;20.60;;;17.00;;
67074;SDS011;53990;50.334;18.640;2022-07-23T03:40:03;23.80;;;16.80;;
67074;SDS011;53990;50.334;18.640;2022-07-23T03:42:30;24.40;;;17.60;;
67074;SDS011;53990;50.334;18.640;2022-07-23T03:44:57;24.00;;;17.50;;
67074;SDS011;53990;50.334;18.640;2022-07-23T03:47:25;22.50;;;16.50;;
67074;SDS011;53990;50.334;18.640;2022-07-23T03:49:52;24.10;;;17.30;;
67074;SDS011;53990;50.334;18.640;2022-07-23T03:52:19;22.00;;;16.50;;
67074;SDS011;53990;50.334;18.640;2022-07-23T03:54:46;22.20;;;16.00;;
67074;SDS011;53990;50.334;18.640;2022-07-23T03:57:13;22.50;;;17.30;;
67074;SDS011;53990;50.334;18.640;2022-07-23T03:59:41;24.60;;;18.30;;
67074;SDS011;53990;50.334;18.640;2022-07-23T04:02:08;25.50;;;18.10;;
67074;SDS011;53990;50.334;18.640;2022-07-23T04:04:35;26.20;;;17.90;;
67074;SDS011;53990;50.334;18.640;2022-07-23T04:07:02;26.30;;;17.30;;
67074;SDS011;53990;50.334;18.640;2022-07-23T04:09:29;25.80;;;16.90;;
67074;SDS011;53990;50.334;18.640;2022-07-23T04:11:56;28.10;;;19.70;;
67074;SDS011;53990;50.334;18.640;2022-07-23T04:14:23;26.20;;;17.80;;
67074;SDS011;53990;50.334;18.640;2022-07-23T04:16:51;28.20;;;17.30;;
67074;SDS011;53990;50.334;18.640;2022-07-23T04:19:18;26.70;;;17.70;;
67074;SDS011;53990;50.334;18.640;2022-07-23T04:21:45;24.20;;;18.50;;
67074;SDS011;53990;50.334;18.640;2022-07-23T04:24:12;27.20;;;16.90;;
67074;SDS011;53990;50.334;18.640;2022-07-23T04:26:40;23.70;;;17.60;;
67074;SDS011;53990;50.334;18.640;2022-07-23T04:29:07;22.40;;;17.20;;
67074;SDS011;53990;50.334;18.640;2022-07-23T04:31:34;25.90;;;16.70;;
67074;SDS011;53990;50.334;18.640;2022-07-23T04:34:01;24.90;;;16.90;;
67074;SDS011;53990;50.334;18.640;2022-07-23T04:36:28;28.90;;;16.80;;
67074;SDS011;53990;50.334;18.640;2022-07-23T04:38:56;22.50;;;17.20;;
67074;SDS011;53990;50.334;18.640;2022-07-23T04:41:23;38.10;;;28.00;;
67074;SDS011;53990;50.334;18.640;2022-07-23T04:43:50;26.30;;;17.00;;
67074;SDS011;53990;50.334;18.640;2022-07-23T04:46:17;23.50;;;17.30;;
67074;SDS011;53990;50.334;18.640;2022-07-23T04:48:44;23.50;;;16.60;;
67074;SDS011;53990;50.334;18.640;2022-07-23T04:51:11;21.60;;;16.20;;
67074;SDS011;53990;50.334;18.640;2022-07-23T04:53:39;24.20;;;17.00;;
67074;SDS011;53990;50.334;18.640;2022-07-23T04:56:06;21.00;;;15.60;;
67074;SDS011;53990;50.334;18.640;2022-07-23T04:58:33;19.80;;;15.50;;
67074;SDS011;53990;50.334;18.640;2022-07-23T05:01:01;20.00;;;16.30;;
67074;SDS011;53990;50.334;18.640;2022-07-23T05:03:28;21.50;;;15.60;;
67074;SDS011;53990;50.334;18.640;2022-07-23T05:05:56;22.20;;;16.00;;
67074;SDS011;53990;50.334;18.640;2022-07-23T05:08:23;21.60;;;15.80;;
67074;SDS011;53990;50.334;18.640;2022-07-23T05:10:50;22.50;;;16.40;;
67074;SDS011;53990;50.334;18.640;2022-07-23T05:13:17;24.00;;;16.40;;
67074;SDS011;53990;50.334;18.640;2022-07-23T05:15:46;21.60;;;15.80;;
67074;SDS011;53990;50.334;18.640;2022-07-23T05:18:14;22.40;;;16.10;;
67074;SDS011;53990;50.334;18.640;2022-07-23T05:20:41;23.00;;;18.50;;
67074;SDS011;53990;50.334;18.640;2022-07-23T05:23:08;24.80;;;17.30;;
67074;SDS011;53990;50.334;18.640;2022-07-23T05:25:36;24.90;;;15.40;;
67074;SDS011;53990;50.334;18.640;2022-07-23T05:28:03;23.10;;;16.10;;
67074;SDS011;53990;50.334;18.640;2022-07-23T05:30:30;22.80;;;15.90;;
67074;SDS011;53990;50.334;18.640;2022-07-23T05:32:57;19.50;;;15.50;;
67074;SDS011;53990;50.334;18.640;2022-07-23T05:35:25;20.00;;;15.90;;
67074;SDS011;53990;50.334;18.640;2022-07-23T05:37:52;19.40;;;16.00;;
67074;SDS011;53990;50.334;18.640;2022-07-23T05:40:19;19.70;;;15.70;;
67074;SDS011;53990;50.334;18.640;2022-07-23T05:42:47;21.80;;;15.50;;
67074;SDS011;53990;50.334;18.640;2022-07-23T05:45:14;21.40;;;15.10;;
67074;SDS011;53990;50.334;18.640;2022-07-23T05:47:41;18.10;;;15.20;;
67074;SDS011;53990;50.334;18.640;2022-07-23T05:50:10;19.60;;;15.20;;
67074;SDS011;53990;50.334;18.640;2022-07-23T05:52:38;19.70;;;15.00;;
67074;SDS011;53990;50.334;18.640;2022-07-23T05:55:06;21.80;;;15.60;;
67074;SDS011;53990;50.334;18.640;2022-07-23T05:57:34;20.50;;;15.60;;
67074;SDS011;53990;50.334;18.640;2022-07-23T06:00:05;20.90;;;16.00;;
67074;SDS011;53990;50.334;18.640;2022-07-23T06:02:32;21.10;;;15.80;;
67074;SDS011;53990;50.334;18.640;2022-07-23T06:05:00;24.20;;;17.00;;
67074;SDS011;53990;50.334;18.640;2022-07-23T06:07:27;36.30;;;26.90;;
67074;SDS011;53990;50.334;18.640;2022-07-23T06:09:54;31.00;;;23.00;;
67074;SDS011;53990;50.334;18.640;2022-07-23T06:12:21;34.10;;;22.20;;
67074;SDS011;53990;50.334;18.640;2022-07-23T06:14:48;28.10;;;19.70;;
67074;SDS011;53990;50.334;18.640;2022-07-23T06:17:16;28.90;;;20.50;;
67074;SDS011;53990;50.334;18.640;2022-07-23T06:19:43;30.30;;;21.70;;
67074;SDS011;53990;50.334;18.640;2022-07-23T06:22:10;32.90;;;23.80;;
67074;SDS011;53990;50.334;18.640;2022-07-23T06:24:38;33.60;;;23.60;;
67074;SDS011;53990;50.334;18.640;2022-07-23T06:27:05;30.10;;;23.50;;
67074;SDS011;53990;50.334;18.640;2022-07-23T06:29:32;29.80;;;22.10;;
67074;SDS011;53990;50.334;18.640;2022-07-23T06:31:59;32.60;;;23.20;;
67074;SDS011;53990;50.334;18.640;2022-07-23T06:34:26;30.10;;;22.20;;
67074;SDS011;53990;50.334;18.640;2022-07-23T06:36:53;26.60;;;20.20;;
67074;SDS011;53990;50.334;18.640;2022-07-23T06:39:21;26.50;;;19.20;;
67074;SDS011;53990;50.334;18.640;2022-07-23T06:41:48;27.70;;;20.20;;
67074;SDS011;53990;50.334;18.640;2022-07-23T06:44:15;27.90;;;20.50;;
67074;SDS011;53990;50.334;18.640;2022-07-23T06:46:42;26.60;;;20.20;;
67074;SDS011;53990;50.334;18.640;2022-07-23T06:49:10;30.40;;;24.50;;
67074;SDS011;53990;50.334;18.640;2022-07-23T06:51:37;27.30;;;20.30;;
67074;SDS011;53990;50.334;18.640;2022-07-23T06:54:04;28.30;;;20.00;;
67074;SDS011;53990;50.334;18.640;2022-07-23T06:56:32;27.80;;;20.30;;
67074;SDS011;53990;50.334;18.640;2022-07-23T06:58:59;30.50;;;21.60;;
67074;SDS011;53990;50.334;18.640;2022-07-23T07:01:26;50.20;;;40.20;;
67074;SDS011;53990;50.334;18.640;2022-07-23T07:03:53;26.80;;;20.00;;
67074;SDS011;53990;50.334;18.640;2022-07-23T07:06:21;28.00;;;20.80;;
67074;SDS011;53990;50.334;18.640;2022-07-23T07:08:48;28.90;;;21.80;;
67074;SDS011;53990;50.334;18.640;2022-07-23T07:11:15;33.10;;;20.20;;
67074;SDS011;53990;50.334;18.640;2022-07-23T07:13:42;27.40;;;21.10;;
67074;SDS011;53990;50.334;18.640;2022-07-23T07:16:09;26.50;;;20.80;;
67074;SDS011;53990;50.334;18.640;2022-07-23T07:18:36;27.60;;;20.50;;
67074;SDS011;53990;50.334;18.640;2022-07-23T07:21:04;21.90;;;18.50;;
67074;SDS011;53990;50.334;18.640;2022-07-23T07:23:31;25.50;;;18.50;;
67074;SDS011;53990;50.334;18.640;2022-07-23T07:25:58;23.60;;;18.00;;
67074;SDS011;53990;50.334;18.640;2022-07-23T07:28:25;22.30;;;17.00;;
67074;SDS011;53990;50.334;18.640;2022-07-23T07:30:52;20.70;;;18.10;;
67074;SDS011;53990;50.334;18.640;2022-07-23T07:33:20;22.40;;;17.80;;
67074;SDS011;53990;50.334;18.640;2022-07-23T07:35:48;22.30;;;17.10;;
67074;SDS011;53990;50.334;18.640;2022-07-23T07:38:15;21.70;;;17.50;;
67074;SDS011;53990;50.334;18.640;2022-07-23T07:40:42;20.90;;;15.50;;
67074;SDS011;53990;50.334;18.640;2022-07-23T07:43:09;20.40;;;15.80;;
67074;SDS011;53990;50.334;18.640;2022-07-23T07:45:37;25.20;;;19.60;;
67074;SDS011;53990;50.334;18.640;2022-07-23T07:48:04;19.50;;;14.40;;
67074;SDS011;53990;50.334;18.640;2022-07-23T07:50:32;20.80;;;15.30;;
67074;SDS011;53990;50.334;18.640;2022-07-23T07:52:59;17.00;;;14.30;;
67074;SDS011;53990;50.334;18.640;2022-07-23T07:55:35;16.90;;;14.80;;
67074;SDS011;53990;50.334;18.640;2022-07-23T07:58:02;18.40;;;14.80;;
67074;SDS011;53990;50.334;18.640;2022-07-23T08:00:30;21.40;;;16.40;;
67074;SDS011;53990;50.334;18.640;2022-07-23T08:02:57;17.10;;;14.90;;
67074;SDS011;53990;50.334;18.640;2022-07-23T08:05:26;18.10;;;15.10;;
67074;SDS011;53990;50.334;18.640;2022-07-23T08:07:55;18.80;;;14.70;;
67074;SDS011;53990;50.334;18.640;2022-07-23T08:10:24;23.40;;;15.30;;
67074;SDS011;53990;50.334;18.640;2022-07-23T08:12:54;19.50;;;14.70;;
67074;SDS011;53990;50.334;18.640;2022-07-23T08:15:23;16.10;;;13.90;;
67074;SDS011;53990;50.334;18.640;2022-07-23T08:17:50;16.40;;;14.20;;
67074;SDS011;53990;50.334;18.640;2022-07-23T08:20:19;17.40;;;15.00;;
67074;SDS011;53990;50.334;18.640;2022-07-23T08:22:57;18.10;;;14.50;;
67074;SDS011;53990;50.334;18.640;2022-07-23T08:25:29;14.90;;;13.00;;
67074;SDS011;53990;50.334;18.640;2022-07-23T08:27:58;15.10;;;12.30;;
67074;SDS011;53990;50.334;18.640;2022-07-23T08:30:27;15.60;;;13.10;;
67074;SDS011;53990;50.334;18.640;2022-07-23T08:32:59;16.00;;;12.90;;
67074;SDS011;53990;50.334;18.640;2022-07-23T08:35:35;15.10;;;12.30;;
67074;SDS011;53990;50.334;18.640;2022-07-23T08:38:06;16.10;;;12.00;;
67074;SDS011;53990;50.334;18.640;2022-07-23T08:40:37;14.40;;;12.40;;
67074;SDS011;53990;50.334;18.640;2022-07-23T08:43:07;14.50;;;12.20;;
67074;SDS011;53990;50.334;18.640;2022-07-23T08:45:43;13.50;;;11.60;;
67074;SDS011;53990;50.334;18.640;2022-07-23T08:48:13;15.00;;;11.90;;
67074;SDS011;53990;50.334;18.640;2022-07-23T08:50:48;15.10;;;11.90;;
67074;SDS011;53990;50.334;18.640;2022-07-23T08:53:16;14.10;;;11.50;;
67074;SDS011;53990;50.334;18.640;2022-07-23T08:55:45;12.70;;;10.50;;
67074;SDS011;53990;50.334;18.640;2022-07-23T08:58:14;13.20;;;10.00;;
67074;SDS011;53990;50.334;18.640;2022-07-23T09:00:42;13.20;;;11.10;;
67074;SDS011;53990;50.334;18.640;2022-07-23T09:03:18;17.80;;;15.00;;
67074;SDS011;53990;50.334;18.640;2022-07-23T09:05:46;12.60;;;10.00;;
67074;SDS011;53990;50.334;18.640;2022-07-23T09:08:15;13.50;;;10.80;;
67074;SDS011;53990;50.334;18.640;2022-07-23T09:11:01;13.10;;;10.70;;
67074;SDS011;53990;50.334;18.640;2022-07-23T09:13:41;12.90;;;11.40;;
67074;SDS011;53990;50.334;18.640;2022-07-23T09:16:15;15.00;;;10.50;;
67074;SDS011;53990;50.334;18.640;2022-07-23T09:21:20;12.00;;;10.30;;
67074;SDS011;53990;50.334;18.640;2022-07-23T09:23:55;11.40;;;10.20;;
67074;SDS011;53990;50.334;18.640;2022-07-23T09:29:21;13.10;;;10.60;;
67074;SDS011;53990;50.334;18.640;2022-07-23T09:32:02;11.30;;;10.20;;
67074;SDS011;53990;50.334;18.640;2022-07-23T09:34:33;13.10;;;9.80;;
67074;SDS011;53990;50.334;18.640;2022-07-23T09:37:16;14.10;;;10.80;;
67074;SDS011;53990;50.334;18.640;2022-07-23T09:39:47;12.60;;;10.70;;
67074;SDS011;53990;50.334;18.640;2022-07-23T09:42:19;13.40;;;10.50;;
67074;SDS011;53990;50.334;18.640;2022-07-23T09:44:48;13.40;;;10.60;;
67074;SDS011;53990;50.334;18.640;2022-07-23T09:47:17;14.10;;;12.60;;
67074;SDS011;53990;50.334;18.640;2022-07-23T09:55:09;13.00;;;9.60;;
67074;SDS011;53990;50.334;18.640;2022-07-23T09:57:36;11.00;;;9.60;;
67074;SDS011;53990;50.334;18.640;2022-07-23T10:00:08;11.80;;;10.60;;
67074;SDS011;53990;50.334;18.640;2022-07-23T10:02:39;10.90;;;9.70;;
67074;SDS011;53990;50.334;18.640;2022-07-23T10:05:07;11.50;;;10.00;;
67074;SDS011;53990;50.334;18.640;2022-07-23T10:07:37;11.20;;;10.10;;
67074;SDS011;53990;50.334;18.640;2022-07-23T10:10:07;12.10;;;10.90;;
67074;SDS011;53990;50.334;18.640;2022-07-23T10:12:35;11.00;;;9.90;;
67074;SDS011;53990;50.334;18.640;2022-07-23T10:15:15;11.30;;;10.10;;
67074;SDS011;53990;50.334;18.640;2022-07-23T10:17:42;10.00;;;9.00;;
67074;SDS011;53990;50.334;18.640;2022-07-23T10:20:09;12.70;;;8.50;;
67074;SDS011;53990;50.334;18.640;2022-07-23T10:22:40;11.70;;;9.50;;
67074;SDS011;53990;50.334;18.640;2022-07-23T10:25:40;9.30;;;8.20;;
67074;SDS011;53990;50.334;18.640;2022-07-23T10:28:33;9.40;;;8.40;;
67074;SDS011;53990;50.334;18.640;2022-07-23T10:33:43;10.10;;;8.40;;
67074;SDS011;53990;50.334;18.640;2022-07-23T10:36:35;11.20;;;8.10;;
67074;SDS011;53990;50.334;18.640;2022-07-23T10:39:26;12.20;;;10.90;;
67074;SDS011;53990;50.334;18.640;2022-07-23T10:42:19;9.30;;;8.40;;
67074;SDS011;53990;50.334;18.640;2022-07-23T10:44:47;10.60;;;9.40;;
67074;SDS011;53990;50.334;18.640;2022-07-23T10:47:28;18.20;;;16.30;;
67074;SDS011;53990;50.334;18.640;2022-07-23T10:58:04;9.10;;;8.10;;
67074;SDS011;53990;50.334;18.640;2022-07-23T11:00:33;11.60;;;8.90;;
67074;SDS011;53990;50.334;18.640;2022-07-23T11:03:03;10.90;;;9.40;;
67074;SDS011;53990;50.334;18.640;2022-07-23T11:08:10;11.80;;;8.50;;
67074;SDS011;53990;50.334;18.640;2022-07-23T11:32:05;8.60;;;7.60;;
67074;SDS011;53990;50.334;18.640;2022-07-23T11:34:40;8.20;;;6.60;;
67074;SDS011;53990;50.334;18.640;2022-07-23T11:37:11;7.90;;;6.70;;
67074;SDS011;53990;50.334;18.640;2022-07-23T11:39:39;7.70;;;6.90;;
67074;SDS011;53990;50.334;18.640;2022-07-23T11:42:07;7.50;;;6.80;;
67074;SDS011;53990;50.334;18.640;2022-07-23T11:44:39;7.70;;;6.90;;
67074;SDS011;53990;50.334;18.640;2022-07-23T11:47:08;8.30;;;7.30;;
67074;SDS011;53990;50.334;18.640;2022-07-23T11:49:37;9.30;;;7.00;;
67074;SDS011;53990;50.334;18.640;2022-07-23T11:52:14;8.10;;;7.10;;
67074;SDS011;53990;50.334;18.640;2022-07-23T11:54:58;9.10;;;7.70;;
67074;SDS011;53990;50.334;18.640;2022-07-23T11:57:28;9.80;;;8.30;;
67074;SDS011;53990;50.334;18.640;2022-07-23T12:00:01;12.40;;;7.50;;
67074;SDS011;53990;50.334;18.640;2022-07-23T12:02:29;8.20;;;7.40;;
67074;SDS011;53990;50.334;18.640;2022-07-23T12:04:56;8.60;;;7.50;;
67074;SDS011;53990;50.334;18.640;2022-07-23T12:07:37;9.90;;;7.80;;
67074;SDS011;53990;50.334;18.640;2022-07-23T12:10:13;11.70;;;9.30;;
67074;SDS011;53990;50.334;18.640;2022-07-23T12:12:46;10.40;;;8.70;;
67074;SDS011;53990;50.334;18.640;2022-07-23T12:15:15;9.90;;;8.20;;
67074;SDS011;53990;50.334;18.640;2022-07-23T12:17:45;9.50;;;8.60;;
67074;SDS011;53990;50.334;18.640;2022-07-23T12:20:15;12.40;;;11.10;;
67074;SDS011;53990;50.334;18.640;2022-07-23T12:22:46;9.80;;;8.80;;
67074;SDS011;53990;50.334;18.640;2022-07-23T12:25:17;11.10;;;9.60;;
67074;SDS011;53990;50.334;18.640;2022-07-23T12:27:44;11.30;;;8.70;;
67074;SDS011;53990;50.334;18.640;2022-07-23T12:30:22;10.70;;;9.60;;
67074;SDS011;53990;50.334;18.640;2022-07-23T12:32:52;11.10;;;10.00;;
67074;SDS011;53990;50.334;18.640;2022-07-23T12:35:21;11.20;;;8.90;;
67074;SDS011;53990;50.334;18.640;2022-07-23T12:37:50;12.40;;;9.20;;
67074;SDS011;53990;50.334;18.640;2022-07-23T12:40:26;10.90;;;8.70;;
67074;SDS011;53990;50.334;18.640;2022-07-23T12:42:59;11.90;;;9.00;;
67074;SDS011;53990;50.334;18.640;2022-07-23T12:45:28;11.90;;;9.60;;
67074;SDS011;53990;50.334;18.640;2022-07-23T12:48:08;8.50;;;7.60;;
67074;SDS011;53990;50.334;18.640;2022-07-23T12:50:40;8.90;;;7.80;;
67074;SDS011;53990;50.334;18.640;2022-07-23T12:53:14;8.60;;;7.80;;
67074;SDS011;53990;50.334;18.640;2022-07-23T12:55:43;8.60;;;7.70;;
67074;SDS011;53990;50.334;18.640;2022-07-23T12:58:18;8.60;;;7.30;;
67074;SDS011;53990;50.334;18.640;2022-07-23T13:00:57;8.50;;;7.50;;
67074;SDS011;53990;50.334;18.640;2022-07-23T13:03:36;9.50;;;7.90;;
67074;SDS011;53990;50.334;18.640;2022-07-23T13:06:05;9.40;;;8.50;;
67074;SDS011;53990;50.334;18.640;2022-07-23T13:08:33;8.30;;;7.50;;
67074;SDS011;53990;50.334;18.640;2022-07-23T13:11:01;8.80;;;7.90;;
67074;SDS011;53990;50.334;18.640;2022-07-23T13:13:30;10.90;;;9.30;;
67074;SDS011;53990;50.334;18.640;2022-07-23T13:15:58;11.50;;;8.00;;
67074;SDS011;53990;50.334;18.640;2022-07-23T13:18:26;8.50;;;7.70;;
67074;SDS011;53990;50.334;18.640;2022-07-23T13:20:54;9.50;;;7.90;;
67074;SDS011;53990;50.334;18.640;2022-07-23T13:23:22;9.50;;;8.00;;
67074;SDS011;53990;50.334;18.640;2022-07-23T13:25:50;8.60;;;7.70;;
67074;SDS011;53990;50.334;18.640;2022-07-23T13:28:19;12.50;;;11.20;;
67074;SDS011;53990;50.334;18.640;2022-07-23T13:30:47;14.30;;;12.80;;
67074;SDS011;53990;50.334;18.640;2022-07-23T13:33:22;11.30;;;10.20;;
67074;SDS011;53990;50.334;18.640;2022-07-23T13:35:50;21.80;;;10.00;;
67074;SDS011;53990;50.334;18.640;2022-07-23T13:38:19;21.10;;;10.00;;
67074;SDS011;53990;50.334;18.640;2022-07-23T13:40:49;19.40;;;9.80;;
67074;SDS011;53990;50.334;18.640;2022-07-23T13:43:18;19.80;;;13.50;;
67074;SDS011;53990;50.334;18.640;2022-07-23T13:45:46;24.20;;;18.20;;
67074;SDS011;53990;50.334;18.640;2022-07-23T13:48:14;13.80;;;9.80;;
67074;SDS011;53990;50.334;18.640;2022-07-23T13:50:42;15.90;;;11.70;;
67074;SDS011;53990;50.334;18.640;2022-07-23T13:53:14;13.70;;;10.40;;
67074;SDS011;53990;50.334;18.640;2022-07-23T13:55:42;14.00;;;10.00;;
67074;SDS011;53990;50.334;18.640;2022-07-23T13:58:10;12.90;;;10.10;;
67074;SDS011;53990;50.334;18.640;2022-07-23T14:00:44;14.10;;;10.30;;
67074;SDS011;53990;50.334;18.640;2022-07-23T14:03:13;13.20;;;9.40;;
67074;SDS011;53990;50.334;18.640;2022-07-23T14:05:41;12.60;;;9.30;;
67074;SDS011;53990;50.334;18.640;2022-07-23T14:08:09;12.70;;;10.10;;
67074;SDS011;53990;50.334;18.640;2022-07-23T14:10:36;13.40;;;10.30;;
67074;SDS011;53990;50.334;18.640;2022-07-23T14:13:03;11.70;;;10.10;;
67074;SDS011;53990;50.334;18.640;2022-07-23T14:15:31;13.50;;;10.40;;
67074;SDS011;53990;50.334;18.640;2022-07-23T14:17:59;13.70;;;10.40;;
67074;SDS011;53990;50.334;18.640;2022-07-23T14:20:26;12.60;;;10.60;;
67074;SDS011;53990;50.334;18.640;2022-07-23T14:22:53;11.20;;;10.10;;
67074;SDS011;53990;50.334;18.640;2022-07-23T14:25:22;13.40;;;11.10;;
67074;SDS011;53990;50.334;18.640;2022-07-23T14:27:50;14.80;;;11.90;;
67074;SDS011;53990;50.334;18.640;2022-07-23T14:30:17;13.00;;;11.60;;
67074;SDS011;53990;50.334;18.640;2022-07-23T14:32:44;13.00;;;11.20;;
67074;SDS011;53990;50.334;18.640;2022-07-23T14:35:11;12.10;;;10.90;;
67074;SDS011;53990;50.334;18.640;2022-07-23T14:37:39;11.90;;;10.60;;
67074;SDS011;53990;50.334;18.640;2022-07-23T14:40:07;11.90;;;10.70;;
67074;SDS011;53990;50.334;18.640;2022-07-23T14:42:34;14.20;;;11.00;;
67074;SDS011;53990;50.334;18.640;2022-07-23T14:45:01;13.00;;;11.70;;
67074;SDS011;53990;50.334;18.640;2022-07-23T14:47:31;14.40;;;12.50;;
67074;SDS011;53990;50.334;18.640;2022-07-23T14:49:58;12.50;;;10.70;;
67074;SDS011;53990;50.334;18.640;2022-07-23T14:52:25;15.10;;;11.10;;
67074;SDS011;53990;50.334;18.640;2022-07-23T14:54:53;14.80;;;12.00;;
67074;SDS011;53990;50.334;18.640;2022-07-23T14:57:20;12.50;;;10.70;;
67074;SDS011;53990;50.334;18.640;2022-07-23T14:59:47;14.10;;;11.60;;
67074;SDS011;53990;50.334;18.640;2022-07-23T15:02:14;12.20;;;11.00;;
67074;SDS011;53990;50.334;18.640;2022-07-23T15:04:41;13.40;;;11.30;;
67074;SDS011;53990;50.334;18.640;2022-07-23T15:07:08;13.00;;;11.70;;
67074;SDS011;53990;50.334;18.640;2022-07-23T15:09:36;12.50;;;11.20;;